Time;durP1;ratioP1;P1;durP2;ratioP2;P2;SDS_P1;SDS_P2;PMS_P1;PMS_P2;Temp;Humidity;BMP_temperature;BMP_pressure;BME280_temperature;BME280_humidity;BME280_pressure;Samples;Min_cycle;Max_cycle;Signal;HPM_P1;HPM_P2
2021/03/16 00:00:21;;;;;;;17.60;3.40;;;6.60;85.80;;;;;;5072643;28;20048;-66
2021/03/16 00:02:46;;;;;;;25.97;4.97;;;6.50;85.40;;;;;;5072640;28;20470;-66
2021/03/16 00:05:13;;;;;;;15.57;3.73;;;6.40;85.10;;;;;;5071630;28;20311;-66
2021/03/16 00:07:39;;;;;;;23.63;5.07;;;6.40;84.80;;;;;;5072460;28;20044;-67
2021/03/16 00:10:05;;;;;;;19.10;3.43;;;6.30;84.50;;;;;;5071827;28;20432;-66
2021/03/16 00:12:32;;;;;;;23.20;3.47;;;6.30;84.40;;;;;;5072673;28;20072;-66
2021/03/16 00:14:57;;;;;;;20.70;4.50;;;6.30;84.20;;;;;;5072435;28;20375;-66
2021/03/16 00:17:23;;;;;;;21.97;4.83;;;6.20;84.00;;;;;;5071629;28;20052;-66
2021/03/16 00:19:49;;;;;;;22.87;3.20;;;6.20;84.20;;;;;;5072114;28;20048;-66
2021/03/16 00:22:14;;;;;;;24.30;2.80;;;6.30;83.90;;;;;;5072231;28;20055;-66
2021/03/16 00:24:40;;;;;;;22.53;3.87;;;6.20;83.80;;;;;;5071531;28;20053;-66
2021/03/16 00:27:06;;;;;;;14.53;2.80;;;6.30;83.80;;;;;;5072087;28;20477;-66
2021/03/16 00:29:31;;;;;;;17.20;2.87;;;6.30;84.10;;;;;;5072508;28;20509;-66
2021/03/16 00:31:57;;;;;;;18.57;4.07;;;6.30;84.30;;;;;;5071174;28;20089;-66
2021/03/16 00:34:23;;;;;;;15.17;3.20;;;6.40;84.00;;;;;;5071855;28;20052;-66
2021/03/16 00:36:49;;;;;;;21.00;3.27;;;6.40;84.10;;;;;;5071731;28;20132;-66
2021/03/16 00:39:15;;;;;;;14.43;3.30;;;6.50;84.30;;;;;;5071231;28;20070;-66
2021/03/16 00:41:41;;;;;;;24.73;3.60;;;6.50;84.00;;;;;;5071970;28;20052;-66
2021/03/16 00:44:07;;;;;;;20.47;3.77;;;6.50;83.70;;;;;;5071253;28;20315;-66
2021/03/16 00:46:34;;;;;;;25.53;3.47;;;6.50;83.90;;;;;;5071306;28;20136;-66
2021/03/16 00:49:00;;;;;;;24.67;3.30;;;6.60;84.00;;;;;;5071627;28;20361;-66
2021/03/16 00:51:25;;;;;;;22.30;3.60;;;6.60;84.00;;;;;;5071489;28;20291;-66
2021/03/16 00:53:51;;;;;;;19.13;3.07;;;6.60;83.70;;;;;;5071121;28;20048;-66
2021/03/16 00:56:16;;;;;;;17.83;3.30;;;6.60;83.40;;;;;;5071725;28;20353;-66
2021/03/16 00:58:42;;;;;;;17.80;3.17;;;6.60;83.50;;;;;;5071598;28;20134;-66
2021/03/16 01:01:08;;;;;;;21.20;2.87;;;6.60;82.90;;;;;;5070861;28;20053;-66
2021/03/16 01:03:35;;;;;;;21.87;3.60;;;6.60;83.10;;;;;;5071884;28;20045;-66
2021/03/16 01:06:02;;;;;;;18.60;3.70;;;6.60;83.00;;;;;;5071323;28;20771;-66
2021/03/16 01:08:28;;;;;;;23.50;3.20;;;6.60;83.20;;;;;;5071069;28;20299;-66
2021/03/16 01:10:54;;;;;;;17.03;3.03;;;6.70;83.40;;;;;;5070905;28;20604;-66
2021/03/16 01:13:22;;;;;;;19.20;3.03;;;6.70;83.50;;;;;;5070662;28;20106;-67
2021/03/16 01:15:49;;;;;;;18.43;3.20;;;6.80;83.40;;;;;;5071122;28;20382;-66
2021/03/16 01:18:15;;;;;;;20.77;2.77;;;6.90;83.50;;;;;;5071214;28;20299;-66
2021/03/16 01:20:42;;;;;;;19.20;3.33;;;6.90;83.50;;;;;;5070556;28;20299;-67
2021/03/16 01:23:08;;;;;;;17.13;3.50;;;6.90;83.50;;;;;;5071289;28;20302;-66
2021/03/16 01:25:34;;;;;;;21.63;2.63;;;6.80;83.60;;;;;;5071401;28;20834;-66
2021/03/16 01:27:59;;;;;;;24.57;3.63;;;6.80;83.70;;;;;;5070577;28;20386;-66
2021/03/16 01:30:26;;;;;;;25.80;4.53;;;6.80;83.70;;;;;;5071027;28;20052;-66
2021/03/16 01:32:53;;;;;;;19.20;3.13;;;6.80;83.60;;;;;;5071041;28;20146;-66
2021/03/16 01:35:19;;;;;;;19.30;3.60;;;6.80;83.60;;;;;;5070147;28;20326;-67
2021/03/16 01:37:46;;;;;;;20.97;3.60;;;6.80;83.80;;;;;;5071405;28;20307;-66
2021/03/16 01:40:16;;;;;;;19.37;2.67;;;6.80;83.50;;;;;;5071128;28;20374;-67
2021/03/16 01:42:43;;;;;;;20.83;4.20;;;6.80;83.60;;;;;;5070441;28;20302;-67
2021/03/16 01:45:10;;;;;;;20.73;3.50;;;6.80;83.70;;;;;;5070814;28;20334;-67
2021/03/16 01:47:37;;;;;;;19.57;3.53;;;6.80;83.40;;;;;;5071102;28;20302;-66
2021/03/16 01:50:04;;;;;;;19.67;3.83;;;6.90;83.50;;;;;;5069936;28;20772;-67
2021/03/16 01:52:31;;;;;;;22.47;3.13;;;6.90;83.30;;;;;;5071437;28;20293;-67
2021/03/16 01:54:59;;;;;;;27.50;3.73;;;7.00;83.60;;;;;;5070891;28;20307;-68
2021/03/16 01:57:27;;;;;;;21.13;3.43;;;7.00;83.40;;;;;;5070234;28;20294;-67
2021/03/16 01:59:52;;;;;;;19.03;3.33;;;7.00;83.60;;;;;;5070839;28;20298;-67
2021/03/16 02:02:18;;;;;;;19.30;3.23;;;7.00;83.60;;;;;;5070816;28;20306;-67
2021/03/16 02:04:44;;;;;;;21.40;3.67;;;7.00;83.70;;;;;;5070276;28;20048;-67
2021/03/16 02:07:18;;;;;;;22.13;3.23;;;7.10;83.70;;;;;;5070933;28;20378;-67
2021/03/16 02:10:10;;;;;;;17.47;3.00;;;7.10;84.00;;;;;;5070180;28;20056;-67
2021/03/16 02:12:42;;;;;;;21.53;3.50;;;7.10;84.10;;;;;;5070990;28;20378;-67
2021/03/16 02:15:22;;;;;;;19.73;3.10;;;7.20;83.80;;;;;;5071098;28;20298;-67
2021/03/16 02:17:55;;;;;;;28.53;3.47;;;7.20;83.60;;;;;;5070047;28;20747;-66
2021/03/16 02:20:32;;;;;;;18.33;3.27;;;7.20;83.70;;;;;;5070780;28;20299;-67
2021/03/16 02:23:01;;;;;;;16.53;2.97;;;7.20;83.80;;;;;;5074329;28;20295;-66
2021/03/16 02:26:01;;;;;;;21.47;3.97;;;7.10;83.90;;;;;;5074117;28;20349;-67
2021/03/16 02:28:33;;;;;;;18.07;2.40;;;7.10;83.90;;;;;;5074896;28;20348;-66
2021/03/16 02:31:00;;;;;;;15.57;2.83;;;7.20;83.60;;;;;;5073658;28;20467;-67
2021/03/16 02:33:27;;;;;;;21.13;2.60;;;7.20;83.40;;;;;;5074203;28;20052;-66
2021/03/16 02:35:55;;;;;;;17.53;3.10;;;7.10;83.20;;;;;;5074348;28;20287;-67
2021/03/16 02:38:27;;;;;;;15.03;2.60;;;7.20;83.30;;;;;;5073567;28;20310;-66
2021/03/16 02:40:55;;;;;;;15.73;2.60;;;7.20;83.40;;;;;;5074231;28;20376;-66
2021/03/16 02:43:22;;;;;;;16.07;2.93;;;7.20;83.20;;;;;;5074018;28;20331;-66
2021/03/16 02:45:49;;;;;;;20.57;2.93;;;7.20;83.30;;;;;;5073038;28;20386;-67
2021/03/16 02:48:18;;;;;;;18.17;2.90;;;7.20;83.60;;;;;;5073970;28;20299;-67
2021/03/16 02:50:45;;;;;;;26.13;3.73;;;7.30;83.70;;;;;;5074067;28;20295;-67
2021/03/16 02:53:12;;;;;;;19.03;3.70;;;7.30;83.70;;;;;;5073266;28;20303;-66
2021/03/16 02:55:39;;;;;;;25.37;3.70;;;7.30;83.80;;;;;;5074247;28;20306;-66
2021/03/16 02:58:05;;;;;;;24.80;3.20;;;7.30;84.00;;;;;;5073809;28;20303;-67
2021/03/16 03:00:31;;;;;;;16.23;3.50;;;7.20;83.80;;;;;;5073291;28;20294;-66
2021/03/16 03:02:59;;;;;;;17.83;3.30;;;7.20;83.90;;;;;;5073950;28;20075;-67
2021/03/16 03:05:26;;;;;;;18.27;2.77;;;7.10;84.20;;;;;;5073762;28;20318;-66
2021/03/16 03:07:53;;;;;;;18.80;3.07;;;7.10;84.30;;;;;;5073037;28;20386;-67
2021/03/16 03:10:19;;;;;;;20.33;2.93;;;7.10;84.50;;;;;;5073373;28;20775;-67
2021/03/16 03:12:44;;;;;;;21.20;3.60;;;7.10;84.20;;;;;;5073490;28;20356;-66
2021/03/16 03:15:11;;;;;;;17.10;2.63;;;7.10;85.40;;;;;;5072668;28;20053;-66
2021/03/16 03:17:37;;;;;;;14.83;2.67;;;7.10;84.70;;;;;;5073594;28;20298;-66
2021/03/16 03:20:11;;;;;;;19.87;2.90;;;7.20;84.60;;;;;;5072468;28;20303;-66
2021/03/16 03:22:41;;;;;;;13.73;2.63;;;7.30;84.70;;;;;;5073700;28;20059;-67
2021/03/16 03:25:23;;;;;;;17.17;3.60;;;7.30;84.40;;;;;;5073345;28;20319;-67
2021/03/16 03:27:53;;;;;;;16.52;3.05;;;7.30;84.30;;;;;;5072408;28;20291;-66
2021/03/16 03:30:21;;;;;;;19.57;3.37;;;7.30;84.30;;;;;;5073424;28;20048;-67
2021/03/16 03:32:47;;;;;;;16.27;2.50;;;7.30;83.80;;;;;;5072573;28;20286;-66
2021/03/16 03:35:15;;;;;;;18.57;2.63;;;7.30;83.40;;;;;;5072449;28;20356;-67
2021/03/16 03:37:43;;;;;;;15.33;2.27;;;7.30;83.30;;;;;;5072961;28;20550;-66
2021/03/16 03:40:12;;;;;;;9.70;2.33;;;7.20;83.50;;;;;;5072792;28;20352;-66
2021/03/16 03:42:38;;;;;;;17.63;2.87;;;7.30;83.60;;;;;;5072691;28;20378;-66
2021/03/16 03:45:06;;;;;;;15.33;2.13;;;7.30;83.50;;;;;;5072638;28;20361;-67
2021/03/16 03:47:32;;;;;;;18.87;2.87;;;7.30;84.70;;;;;;5073283;28;20336;-66
2021/03/16 03:49:59;;;;;;;15.53;2.33;;;7.30;83.70;;;;;;5072079;28;20390;-66
2021/03/16 03:52:25;;;;;;;21.23;3.17;;;7.30;83.50;;;;;;5072696;28;20293;-66
2021/03/16 03:54:52;;;;;;;15.93;2.80;;;7.30;83.40;;;;;;5072620;28;20334;-66
2021/03/16 03:57:18;;;;;;;19.07;3.30;;;7.30;83.50;;;;;;5072045;28;20290;-66
2021/03/16 03:59:46;;;;;;;17.53;3.07;;;7.30;83.50;;;;;;5072831;28;20294;-66
2021/03/16 04:02:12;;;;;;;15.47;2.57;;;7.20;83.80;;;;;;5071998;28;20298;-67
2021/03/16 04:04:40;;;;;;;21.07;3.13;;;7.30;83.90;;;;;;5072795;28;20314;-66
2021/03/16 04:07:07;;;;;;;18.97;3.17;;;7.20;84.00;;;;;;5072511;28;20379;-66
2021/03/16 04:09:33;;;;;;;13.17;2.77;;;7.20;84.00;;;;;;5072010;28;20294;-66
2021/03/16 04:12:00;;;;;;;18.57;3.47;;;7.20;84.10;;;;;;5072583;28;20295;-67
2021/03/16 04:14:27;;;;;;;13.73;2.93;;;7.20;84.10;;;;;;5072417;28;20303;-66
2021/03/16 04:16:55;;;;;;;18.43;2.50;;;7.20;83.90;;;;;;5071616;28;20298;-67
2021/03/16 04:19:22;;;;;;;20.07;3.13;;;7.20;84.00;;;;;;5072191;28;20303;-66
2021/03/16 04:21:49;;;;;;;22.07;3.60;;;7.30;83.70;;;;;;5072052;28;20305;-67
2021/03/16 04:24:15;;;;;;;17.37;2.80;;;7.30;83.70;;;;;;5071510;28;20360;-66
2021/03/16 04:26:41;;;;;;;18.10;2.50;;;7.40;83.60;;;;;;5072246;28;20353;-66
2021/03/16 04:29:07;;;;;;;21.33;3.97;;;7.40;83.60;;;;;;5072045;28;20306;-67
2021/03/16 04:31:32;;;;;;;16.33;3.03;;;7.40;83.50;;;;;;5071541;28;20076;-66
2021/03/16 04:33:58;;;;;;;14.03;2.33;;;7.40;83.00;;;;;;5071885;28;20560;-67
2021/03/16 04:36:23;;;;;;;15.70;2.07;;;7.40;82.00;;;;;;5071913;28;20048;-67
2021/03/16 04:38:49;;;;;;;15.40;3.00;;;7.30;81.70;;;;;;5071330;28;20481;-66
2021/03/16 04:41:15;;;;;;;13.33;2.60;;;7.30;82.00;;;;;;5071818;28;20044;-66
2021/03/16 04:43:42;;;;;;;16.17;3.10;;;7.30;82.40;;;;;;5071653;28;20055;-67
2021/03/16 04:46:09;;;;;;;20.87;3.43;;;7.30;82.70;;;;;;5070257;28;20040;-67
2021/03/16 04:48:34;;;;;;;14.07;2.40;;;7.30;83.00;;;;;;5071828;28;20797;-66
2021/03/16 04:51:00;;;;;;;24.10;3.37;;;7.40;83.20;;;;;;5071566;28;20299;-66
2021/03/16 04:53:26;;;;;;;17.90;3.23;;;7.50;83.40;;;;;;5071123;28;20056;-67
2021/03/16 04:55:52;;;;;;;20.37;3.37;;;7.50;83.30;;;;;;5071725;28;20048;-67
2021/03/16 04:58:21;;;;;;;16.47;3.43;;;7.50;83.40;;;;;;5070958;28;20214;-66
2021/03/16 05:00:47;;;;;;;14.63;3.23;;;7.60;83.70;;;;;;5071589;28;20298;-67
2021/03/16 05:03:12;;;;;;;20.87;3.13;;;7.60;83.60;;;;;;5071390;28;20044;-67
2021/03/16 05:05:38;;;;;;;25.20;3.30;;;7.60;83.70;;;;;;5070842;28;20102;-67
2021/03/16 05:08:04;;;;;;;17.77;3.60;;;7.60;83.80;;;;;;5071487;28;20040;-67
2021/03/16 05:10:29;;;;;;;15.93;2.87;;;7.60;83.60;;;;;;5071851;28;20451;-67
2021/03/16 05:12:55;;;;;;;20.47;3.10;;;7.50;83.60;;;;;;5070664;28;20389;-67
2021/03/16 05:15:21;;;;;;;16.20;2.93;;;7.50;83.70;;;;;;5071353;28;20052;-67
2021/03/16 05:17:47;;;;;;;15.63;2.80;;;7.40;83.70;;;;;;5071288;28;20087;-67
2021/03/16 05:20:12;;;;;;;18.47;2.90;;;7.40;84.20;;;;;;5070332;28;20776;-67
2021/03/16 05:22:38;;;;;;;18.07;3.13;;;7.50;84.10;;;;;;5071723;28;20076;-67
2021/03/16 05:25:06;;;;;;;18.40;2.97;;;7.40;83.80;;;;;;5071226;28;20045;-67
2021/03/16 05:27:32;;;;;;;17.00;2.83;;;7.50;83.80;;;;;;5070853;28;20066;-67
2021/03/16 05:29:58;;;;;;;19.37;3.10;;;7.40;83.80;;;;;;5071109;28;20858;-67
2021/03/16 05:32:23;;;;;;;22.47;2.90;;;7.30;84.10;;;;;;5071016;28;20438;-67
2021/03/16 05:34:49;;;;;;;24.13;3.37;;;7.20;84.10;;;;;;5070333;28;20056;-67
2021/03/16 05:37:15;;;;;;;17.63;3.37;;;7.10;84.30;;;;;;5071200;28;20132;-67
2021/03/16 05:39:40;;;;;;;16.47;3.40;;;7.20;84.40;;;;;;5071147;28;20052;-66
2021/03/16 05:42:06;;;;;;;21.93;3.37;;;7.10;84.50;;;;;;5070327;28;20070;-67
2021/03/16 05:44:32;;;;;;;22.37;3.57;;;7.10;84.40;;;;;;5071017;28;20102;-67
2021/03/16 05:47:03;;;;;;;19.63;3.23;;;7.10;84.10;;;;;;5070684;28;20294;-66
2021/03/16 05:49:30;;;;;;;17.37;3.00;;;7.00;83.80;;;;;;5070345;28;20319;-67
2021/03/16 05:52:01;;;;;;;19.17;3.97;;;6.90;84.00;;;;;;5070894;28;20360;-66
2021/03/16 05:54:28;;;;;;;13.80;2.37;;;6.80;83.90;;;;;;5071245;28;20290;-66
2021/03/16 05:56:57;;;;;;;16.70;2.60;;;6.80;84.00;;;;;;5072430;28;20302;-67
2021/03/16 05:59:24;;;;;;;18.53;2.87;;;6.80;84.40;;;;;;5074904;28;20294;-67
2021/03/16 06:01:49;;;;;;;14.53;2.53;;;6.80;84.20;;;;;;5073993;28;20385;-67
2021/03/16 06:04:18;;;;;;;17.17;3.03;;;6.80;84.40;;;;;;5074816;28;20318;-67
2021/03/16 06:06:44;;;;;;;20.70;3.47;;;6.80;84.30;;;;;;5074627;28;20420;-66
2021/03/16 06:09:09;;;;;;;20.60;3.63;;;6.80;84.10;;;;;;5073858;28;20048;-66
2021/03/16 06:11:35;;;;;;;20.83;3.77;;;6.80;84.30;;;;;;5074792;28;20063;-66
2021/03/16 06:14:01;;;;;;;18.37;3.13;;;6.80;84.40;;;;;;5074580;28;20450;-67
2021/03/16 06:16:26;;;;;;;20.80;2.90;;;6.80;84.50;;;;;;5073884;28;20053;-67
2021/03/16 06:18:52;;;;;;;17.07;2.57;;;6.90;84.40;;;;;;5074512;28;20052;-67
2021/03/16 06:21:23;;;;;;;13.27;2.80;;;6.90;84.20;;;;;;5074097;28;20309;-67
2021/03/16 06:23:57;;;;;;;19.17;2.97;;;7.00;84.40;;;;;;5073419;28;20052;-67
2021/03/16 06:26:32;;;;;;;17.13;2.70;;;7.00;84.30;;;;;;5074143;28;20664;-67
2021/03/16 06:29:09;;;;;;;16.63;3.43;;;7.00;84.30;;;;;;5074013;28;20860;-66
2021/03/16 06:31:35;;;;;;;12.07;2.33;;;7.10;84.30;;;;;;5073678;28;20279;-66
2021/03/16 06:34:01;;;;;;;16.33;2.70;;;7.20;84.70;;;;;;5074024;28;20666;-66
2021/03/16 06:36:28;;;;;;;18.87;3.10;;;7.20;84.20;;;;;;5074361;28;20114;-66
2021/03/16 06:38:54;;;;;;;22.90;4.00;;;7.20;83.90;;;;;;5073243;28;20044;-66
2021/03/16 06:41:21;;;;;;;18.70;3.47;;;7.20;84.00;;;;;;5073968;28;20381;-66
2021/03/16 06:43:59;;;;;;;20.23;3.07;;;7.20;84.30;;;;;;5073649;28;20133;-67
2021/03/16 06:46:28;;;;;;;12.97;2.83;;;7.30;84.70;;;;;;5074034;28;20381;-66
2021/03/16 06:48:54;;;;;;;13.40;2.63;;;7.30;84.20;;;;;;5073651;28;20797;-67
2021/03/16 06:51:25;;;;;;;17.50;2.83;;;7.30;84.50;;;;;;5072955;28;20298;-67
2021/03/16 06:53:51;;;;;;;20.53;3.30;;;7.40;84.70;;;;;;5073598;28;20515;-66
2021/03/16 06:56:27;;;;;;;19.67;3.80;;;7.50;84.60;;;;;;5074051;28;20383;-67
2021/03/16 06:58:53;;;;;;;17.80;3.20;;;7.70;84.20;;;;;;5073188;28;20048;-66
2021/03/16 07:01:19;;;;;;;13.57;2.60;;;7.90;83.30;;;;;;5073819;28;20771;-67
2021/03/16 07:03:48;;;;;;;18.03;3.83;;;8.10;82.90;;;;;;5073746;28;20049;-66
2021/03/16 07:06:17;;;;;;;15.33;2.73;;;8.20;82.00;;;;;;5072830;28;20040;-67
2021/03/16 07:08:43;;;;;;;16.47;3.00;;;8.20;82.30;;;;;;5072383;28;20298;-66
2021/03/16 07:11:11;;;;;;;14.73;2.53;;;8.30;82.00;;;;;;5073472;28;20655;-66
2021/03/16 07:13:38;;;;;;;13.87;2.43;;;8.30;81.30;;;;;;5072901;28;20355;-66
2021/03/16 07:16:06;;;;;;;13.37;2.80;;;8.30;81.30;;;;;;5073131;28;20309;-67
2021/03/16 07:18:37;;;;;;;19.00;3.00;;;8.40;80.70;;;;;;5073424;28;20398;-66
2021/03/16 07:21:22;;;;;;;;;;;8.30;80.60;;;;;;5072628;28;20306;-67
2021/03/16 07:23:52;;;;;;;19.63;2.87;;;8.30;79.70;;;;;;5072936;28;20313;-67
2021/03/16 07:26:18;;;;;;;12.60;1.97;;;8.20;80.80;;;;;;5072691;28;20671;-67
2021/03/16 07:28:47;;;;;;;22.63;3.33;;;8.10;81.40;;;;;;5073266;28;20298;-67
2021/03/16 07:31:14;;;;;;;15.97;2.43;;;8.20;81.40;;;;;;5073002;28;20334;-67
2021/03/16 07:33:40;;;;;;;15.60;2.03;;;8.20;80.50;;;;;;5072366;28;20325;-67
2021/03/16 07:36:06;;;;;;;13.47;2.37;;;8.30;80.60;;;;;;5073216;28;20299;-67
2021/03/16 07:38:34;;;;;;;19.33;3.37;;;8.30;80.40;;;;;;5073403;28;20334;-68
2021/03/16 07:41:00;;;;;;;20.43;2.30;;;8.30;80.30;;;;;;5072277;28;20301;-66
2021/03/16 07:43:42;;;;;;;18.13;3.00;;;8.20;80.70;;;;;;5072756;28;20297;-67
2021/03/16 07:46:14;;;;;;;15.97;2.63;;;8.40;80.70;;;;;;5072973;28;20295;-67
2021/03/16 07:48:45;;;;;;;15.30;2.75;;;8.50;81.00;;;;;;5072065;28;20306;-67
2021/03/16 07:51:17;;;;;;;17.05;2.55;;;8.60;79.80;;;;;;5072776;28;20041;-67
2021/03/16 07:54:22;;;;;;;13.38;2.85;;;8.50;79.20;;;;;;5072634;28;20040;-66
2021/03/16 07:57:00;;;;;;;12.20;2.63;;;8.50;79.40;;;;;;5072039;28;20079;-68
2021/03/16 07:59:33;;;;;;;14.83;2.60;;;8.50;79.30;;;;;;5072505;28;20299;-67
2021/03/16 08:01:59;;;;;;;12.97;2.10;;;8.40;79.70;;;;;;5071798;28;20305;-66
2021/03/16 08:04:38;;;;;;;16.73;3.10;;;8.40;79.70;;;;;;5072003;28;20311;-67
2021/03/16 08:07:06;;;;;;;18.73;3.27;;;8.40;79.20;;;;;;5071214;28;20111;-66
2021/03/16 08:09:46;;;;;;;11.93;1.90;;;8.30;79.80;;;;;;5071574;28;20786;-67
2021/03/16 08:12:29;;;;;;;13.80;2.20;;;8.40;79.00;;;;;;5070091;28;20303;-67
2021/03/16 08:14:55;;;;;;;14.20;2.80;;;8.50;79.30;;;;;;5070149;28;20348;-67
2021/03/16 08:17:32;;;;;;;15.37;2.60;;;8.50;79.50;;;;;;5070938;28;20390;-66
2021/03/16 08:19:59;;;;;;;15.73;2.33;;;8.40;77.90;;;;;;5071821;28;20302;-66
2021/03/16 08:22:27;;;;;;;11.23;1.97;;;8.30;78.40;;;;;;5071308;28;20306;-66
2021/03/16 08:25:01;;;;;;;13.97;1.90;;;8.20;78.20;;;;;;5072069;28;20314;-66
2021/03/16 08:27:28;;;;;;;13.13;2.53;;;8.20;78.00;;;;;;5072403;28;20334;-66
2021/03/16 08:29:53;;;;;;;13.70;2.93;;;8.10;78.00;;;;;;5071508;28;20293;-67
2021/03/16 08:32:20;;;;;;;12.63;2.10;;;8.10;77.50;;;;;;5072200;28;20295;-67
2021/03/16 08:34:47;;;;;;;11.57;2.03;;;8.10;77.10;;;;;;5072075;28;20065;-67
2021/03/16 08:37:32;;;;;;;11.80;1.93;;;8.00;77.30;;;;;;5070997;28;20309;-67
2021/03/16 08:39:58;;;;;;;16.63;2.33;;;8.00;77.20;;;;;;5071596;28;20298;-67
2021/03/16 08:42:25;;;;;;;12.10;2.47;;;8.00;76.80;;;;;;5071592;28;20299;-67
2021/03/16 08:44:53;;;;;;;20.57;2.07;;;7.90;76.30;;;;;;5070814;28;20310;-68
2021/03/16 08:47:21;;;;;;;15.87;2.93;;;7.90;76.40;;;;;;5071744;28;20294;-68
2021/03/16 08:49:49;;;;;;;13.23;2.63;;;8.00;76.90;;;;;;5071637;28;20665;-68
2021/03/16 08:52:24;;;;;;;11.07;2.53;;;8.00;76.80;;;;;;5070446;28;20297;-67
2021/03/16 08:54:51;;;;;;;12.73;1.97;;;8.00;76.90;;;;;;5071386;28;20307;-67
2021/03/16 08:57:29;;;;;;;12.97;2.27;;;8.00;76.90;;;;;;5071615;28;20336;-68
2021/03/16 08:59:57;;;;;;;13.20;3.00;;;8.00;76.50;;;;;;5071237;28;20802;-68
2021/03/16 09:02:28;;;;;;;12.53;3.30;;;8.00;76.20;;;;;;5071633;28;20295;-68
2021/03/16 09:04:58;;;;;;;10.40;2.33;;;8.00;75.90;;;;;;5070517;28;20322;-68
2021/03/16 09:07:29;;;;;;;14.73;2.90;;;7.90;76.20;;;;;;5071641;28;20052;-67
2021/03/16 09:10:06;;;;;;;11.75;3.05;;;7.90;76.50;;;;;;5071478;28;20320;-67
2021/03/16 09:12:32;;;;;;;11.50;2.40;;;7.90;76.40;;;;;;5070739;28;20565;-68
2021/03/16 09:15:16;;;;;;;10.70;2.20;;;7.90;75.80;;;;;;5071177;28;20335;-67
2021/03/16 09:17:44;;;;;;;11.07;2.50;;;7.90;75.70;;;;;;5071286;28;20334;-67
2021/03/16 09:20:20;;;;;;;15.27;2.47;;;7.90;76.40;;;;;;5070631;28;20295;-68
2021/03/16 09:23:01;;;;;;;12.57;3.03;;;8.00;76.30;;;;;;5071155;28;20952;-67
2021/03/16 09:25:30;;;;;;;11.90;2.30;;;8.30;76.00;;;;;;5071317;28;20371;-68
2021/03/16 09:28:00;;;;;;;11.77;2.03;;;8.60;75.30;;;;;;5070206;28;20736;-68
2021/03/16 09:30:29;;;;;;;13.53;1.87;;;8.70;73.60;;;;;;5070308;28;20805;-68
2021/03/16 09:32:55;;;;;;;16.23;2.07;;;8.70;72.80;;;;;;5070212;28;20819;-68
2021/03/16 09:35:21;;;;;;;11.37;1.73;;;8.90;71.60;;;;;;5071206;28;20306;-68
2021/03/16 09:37:50;;;;;;;9.40;2.83;;;8.70;70.00;;;;;;5071124;28;20381;-68
2021/03/16 09:40:17;;;;;;;7.97;1.80;;;8.70;70.90;;;;;;5070324;28;20324;-68
2021/03/16 09:42:48;;;;;;;7.80;1.97;;;8.80;69.70;;;;;;5070733;28;20667;-68
2021/03/16 09:45:29;;;;;;;13.05;2.03;;;8.50;69.50;;;;;;5070589;28;20380;-68
2021/03/16 09:47:55;;;;;;;9.57;1.97;;;8.40;70.60;;;;;;5070274;28;20152;-68
2021/03/16 09:50:31;;;;;;;11.47;1.97;;;8.40;71.00;;;;;;5070893;28;20857;-68
2021/03/16 09:52:59;;;;;;;12.03;1.73;;;8.50;71.00;;;;;;5070930;28;20303;-66
2021/03/16 09:55:26;;;;;;;7.50;1.50;;;8.40;70.40;;;;;;5070300;28;20302;-69
2021/03/16 09:57:52;;;;;;;10.57;2.00;;;8.20;71.20;;;;;;5070895;28;20302;-68
2021/03/16 10:00:18;;;;;;;12.47;2.27;;;8.20;71.90;;;;;;5070877;28;20352;-68
2021/03/16 10:02:45;;;;;;;12.77;2.00;;;8.20;73.00;;;;;;5069922;28;20076;-68
2021/03/16 10:05:18;;;;;;;13.47;1.90;;;8.40;72.90;;;;;;5070778;28;20314;-68
2021/03/16 10:07:50;;;;;;;7.50;1.73;;;8.50;72.20;;;;;;5070623;28;20302;-68
2021/03/16 10:10:24;;;;;;;11.43;2.10;;;8.60;71.60;;;;;;5070699;28;20768;-66
2021/03/16 10:12:56;;;;;;;7.50;1.83;;;8.70;71.00;;;;;;5070841;28;20303;-67
2021/03/16 10:15:25;;;;;;;9.53;1.50;;;8.90;70.80;;;;;;5069840;28;20702;-67
2021/03/16 10:17:52;;;;;;;17.43;5.07;;;9.00;71.20;;;;;;5070622;28;20331;-67
2021/03/16 10:20:23;;;;;;;9.27;1.60;;;9.10;71.10;;;;;;5070450;28;20294;-68
2021/03/16 10:22:59;;;;;;;9.50;2.10;;;9.20;70.40;;;;;;5069906;28;20298;-68
2021/03/16 10:25:26;;;;;;;9.93;1.70;;;9.40;70.70;;;;;;5070588;28;20317;-68
2021/03/16 10:28:00;;;;;;;14.20;2.10;;;9.50;69.00;;;;;;5070096;28;20295;-68
2021/03/16 10:30:31;;;;;;;6.30;1.63;;;9.40;68.10;;;;;;5069747;28;20322;-68
2021/03/16 10:32:57;;;;;;;7.93;1.33;;;9.10;66.40;;;;;;5070494;28;20294;-68
2021/03/16 10:35:23;;;;;;;7.87;1.37;;;8.80;67.20;;;;;;5070654;28;20531;-69
2021/03/16 10:37:48;;;;;;;17.53;10.37;;;8.70;67.80;;;;;;5069694;28;20079;-68
2021/03/16 10:40:14;;;;;;;13.43;3.60;;;8.80;68.00;;;;;;5070539;28;20055;-68
2021/03/16 10:42:40;;;;;;;9.93;2.07;;;9.00;68.20;;;;;;5070917;28;20437;-68
2021/03/16 10:45:06;;;;;;;11.97;1.67;;;9.40;67.70;;;;;;5072756;28;20117;-68
2021/03/16 10:47:32;;;;;;;13.33;2.33;;;9.50;66.00;;;;;;5074482;28;20045;-68
2021/03/16 10:49:58;;;;;;;11.43;2.57;;;9.50;65.70;;;;;;5073704;28;20349;-68
2021/03/16 10:52:24;;;;;;;10.33;1.60;;;9.40;65.10;;;;;;5073912;28;20136;-68
2021/03/16 10:54:49;;;;;;;5.90;1.50;;;9.10;65.20;;;;;;5073866;28;20342;-68
2021/03/16 10:57:15;;;;;;;14.77;2.20;;;9.20;65.80;;;;;;5072989;28;20409;-68
2021/03/16 10:59:41;;;;;;;12.33;3.33;;;9.30;65.30;;;;;;5073686;28;20415;-68
2021/03/16 11:02:07;;;;;;;10.73;1.60;;;9.40;64.20;;;;;;5074028;28;20101;-68
2021/03/16 11:04:34;;;;;;;14.20;2.20;;;9.40;64.50;;;;;;5073020;28;20485;-68
2021/03/16 11:07:00;;;;;;;42.43;4.33;;;9.40;64.10;;;;;;5073660;28;20291;-68
2021/03/16 11:09:26;;;;;;;9.57;1.67;;;9.50;63.60;;;;;;5073769;28;20351;-68
2021/03/16 11:11:51;;;;;;;7.17;1.67;;;9.50;63.80;;;;;;5072550;28;20229;-68
2021/03/16 11:14:17;;;;;;;7.70;1.97;;;9.50;64.30;;;;;;5073518;28;20493;-68
2021/03/16 11:16:43;;;;;;;8.37;1.93;;;9.60;64.50;;;;;;5073592;28;20481;-68
2021/03/16 11:19:08;;;;;;;7.07;1.47;;;9.90;64.50;;;;;;5072799;28;20048;-68
2021/03/16 11:21:34;;;;;;;10.60;1.90;;;10.30;63.70;;;;;;5073572;28;20067;-68
2021/03/16 11:24:00;;;;;;;7.30;1.50;;;10.50;62.80;;;;;;5073311;28;20448;-68
2021/03/16 11:26:27;;;;;;;8.47;1.13;;;10.40;60.30;;;;;;5072265;28;20307;-68
2021/03/16 11:28:53;;;;;;;8.57;1.40;;;10.10;61.30;;;;;;5073295;28;20139;-69
2021/03/16 11:31:18;;;;;;;9.63;1.67;;;9.90;61.70;;;;;;5073472;28;20707;-68
2021/03/16 11:33:44;;;;;;;8.90;1.47;;;10.10;62.90;;;;;;5072762;28;20334;-68
2021/03/16 11:36:10;;;;;;;4.83;1.03;;;10.30;61.70;;;;;;5073025;28;20132;-68
2021/03/16 11:38:35;;;;;;;10.50;1.53;;;10.20;61.10;;;;;;5073123;28;20044;-68
2021/03/16 11:41:03;;;;;;;9.80;1.57;;;10.10;61.80;;;;;;5072304;28;20045;-68
2021/03/16 11:43:29;;;;;;;10.77;1.63;;;9.80;61.20;;;;;;5073120;28;20040;-68
2021/03/16 11:45:57;;;;;;;6.43;1.73;;;9.50;61.20;;;;;;5073030;28;20291;-68
2021/03/16 11:48:23;;;;;;;8.83;1.50;;;9.30;62.30;;;;;;5072449;28;20456;-68
2021/03/16 11:50:48;;;;;;;9.33;1.37;;;9.20;62.30;;;;;;5072532;28;20294;-68
2021/03/16 11:53:14;;;;;;;13.73;1.67;;;9.30;63.20;;;;;;5072536;28;20412;-68
2021/03/16 11:55:40;;;;;;;10.43;1.70;;;9.50;63.40;;;;;;5071886;28;20549;-68
2021/03/16 11:58:05;;;;;;;7.47;1.40;;;9.40;63.10;;;;;;5072565;28;20142;-68
2021/03/16 12:00:31;;;;;;;6.67;1.33;;;9.40;62.90;;;;;;5072383;28;20083;-69
2021/03/16 12:02:57;;;;;;;9.03;1.40;;;9.40;63.60;;;;;;5072540;28;20135;-68
2021/03/16 12:05:23;;;;;;;7.37;1.60;;;9.50;63.00;;;;;;5072474;28;20444;-68
2021/03/16 12:07:49;;;;;;;12.47;2.23;;;9.80;63.30;;;;;;5071865;28;20045;-68
2021/03/16 12:10:15;;;;;;;10.90;2.33;;;10.10;62.00;;;;;;5072355;28;20784;-68
2021/03/16 12:12:41;;;;;;;7.10;1.27;;;10.30;62.30;;;;;;5072489;28;20049;-68
2021/03/16 12:15:09;;;;;;;7.80;1.47;;;10.40;62.00;;;;;;5071749;28;20110;-68
2021/03/16 12:17:34;;;;;;;10.10;1.40;;;10.50;62.50;;;;;;5072854;28;20060;-68
2021/03/16 12:20:00;;;;;;;13.03;1.67;;;10.70;61.80;;;;;;5072416;28;20477;-68
2021/03/16 12:22:26;;;;;;;15.17;1.97;;;10.70;60.40;;;;;;5071394;28;20056;-68
2021/03/16 12:24:52;;;;;;;7.40;1.73;;;10.60;60.40;;;;;;5072003;28;20056;-69
2021/03/16 12:27:19;;;;;;;9.83;1.77;;;10.30;60.30;;;;;;5071968;28;20098;-68
2021/03/16 12:29:45;;;;;;;9.23;2.03;;;9.90;61.00;;;;;;5071366;28;20060;-69
2021/03/16 12:32:11;;;;;;;9.80;1.83;;;9.70;61.60;;;;;;5072145;28;20076;-68
2021/03/16 12:34:37;;;;;;;10.67;2.67;;;9.40;61.60;;;;;;5071897;28;20056;-69
2021/03/16 12:37:03;;;;;;;8.17;1.70;;;9.40;62.30;;;;;;5070700;28;20124;-69
2021/03/16 12:39:29;;;;;;;10.27;1.70;;;9.60;62.50;;;;;;5072178;28;20357;-69
2021/03/16 12:41:55;;;;;;;9.80;2.20;;;9.80;62.40;;;;;;5071595;28;20790;-67
2021/03/16 12:44:20;;;;;;;13.53;2.10;;;9.90;62.10;;;;;;5070754;28;20378;-67
2021/03/16 12:46:46;;;;;;;7.63;1.50;;;9.80;61.70;;;;;;5071735;28;20442;-67
2021/03/16 12:49:12;;;;;;;10.23;2.00;;;9.70;61.80;;;;;;5071811;28;20056;-64
2021/03/16 12:51:37;;;;;;;8.43;1.50;;;9.50;61.00;;;;;;5071204;28;20044;-65